createdAt,value
2023-03-29T00:01:00.120Z,72.67
2023-03-29T00:03:54.211Z,72.40
2023-03-29T00:06:47.905Z,72.19
2023-03-29T00:09:41.097Z,71.81
2023-03-29T00:12:23.848Z,71.39
2023-03-29T00:15:16.944Z,71.13
2023-03-29T00:18:09.806Z,70.65
2023-03-29T00:21:00.565Z,70.18
2023-03-29T00:23:53.669Z,69.90
2023-03-29T00:26:39.182Z,69.56
2023-03-29T00:29:32.534Z,69.41
2023-03-29T00:32:08.596Z,68.93
2023-03-29T00:34:46.198Z,68.63
2023-03-29T00:37:30.176Z,68.31
2023-03-29T00:40:09.867Z,68.01
2023-03-29T00:43:04.247Z,67.64
2023-03-29T00:45:56.997Z,67.36
2023-03-29T00:48:33.081Z,67.23
2023-03-29T00:51:29.452Z,66.81
2023-03-29T00:54:15.838Z,66.35
2023-03-29T00:57:02.345Z,66.09
2023-03-29T00:59:56.446Z,65.97
2023-03-29T01:02:54.625Z,65.66
2023-03-29T01:05:43.041Z,65.38
2023-03-29T01:08:42.004Z,65.11
2023-03-29T01:11:39.346Z,65.13
2023-03-29T01:14:30.310Z,65.08
2023-03-29T01:17:06.742Z,64.95
2023-03-29T01:20:01.108Z,65.07
2023-03-29T01:23:16.061Z,65.02
2023-03-29T01:26:19.925Z,64.95
2023-03-29T01:29:01.030Z,64.88
2023-03-29T01:31:58.550Z,64.66
2023-03-29T01:34:52.083Z,64.60
2023-03-29T01:37:38.083Z,64.57
2023-03-29T01:40:31.240Z,64.47
2023-03-29T01:43:28.430Z,64.51
2023-03-29T01:46:31.456Z,64.67
2023-03-29T01:49:30.637Z,64.84
2023-03-29T01:52:27.786Z,65.02
2023-03-29T01:55:25.520Z,65.21
2023-03-29T01:58:21.009Z,65.31
2023-03-29T02:01:18.686Z,65.33
2023-03-29T02:04:15.049Z,65.36
2023-03-29T02:07:01.692Z,65.42
2023-03-29T02:09:55.814Z,65.39
2023-03-29T02:12:38.621Z,65.53
2023-03-29T02:15:31.608Z,65.54
2023-03-29T02:18:24.826Z,65.60
2023-03-29T02:21:08.719Z,65.60
2023-03-29T02:23:50.014Z,65.33
2023-03-29T02:26:42.792Z,65.25
2023-03-29T02:29:36.591Z,65.21
2023-03-29T02:32:35.569Z,65.23
2023-03-29T02:35:36.530Z,65.29
2023-03-29T02:38:25.842Z,65.41
2023-03-29T02:41:09.323Z,65.45
2023-03-29T02:44:04.267Z,65.45
2023-03-29T02:47:01.457Z,65.55
2023-03-29T02:49:34.543Z,65.54
2023-03-29T02:52:33.592Z,65.41
2023-03-29T02:55:18.879Z,65.37
2023-03-29T02:57:51.904Z,65.42
2023-03-29T03:00:48.024Z,65.30
2023-03-29T03:03:41.423Z,65.18
2023-03-29T03:06:34.902Z,65.07
2023-03-29T03:09:27.740Z,65.02
2023-03-29T03:12:20.523Z,64.94
2023-03-29T03:15:14.838Z,64.70
2023-03-29T03:18:07.470Z,64.41
2023-03-29T03:21:02.212Z,64.35
2023-03-29T03:23:48.673Z,64.28
2023-03-29T03:26:41.501Z,64.29
2023-03-29T03:29:35.493Z,64.14
2023-03-29T03:32:31.033Z,64.08
2023-03-29T03:35:24.186Z,64.04
2023-03-29T03:38:16.955Z,64.11
2023-03-29T03:41:10.271Z,64.04
2023-03-29T03:44:03.111Z,64.18
2023-03-29T03:46:55.939Z,64.02
2023-03-29T03:49:48.732Z,63.94
2023-03-29T03:52:41.720Z,64.03
2023-03-29T03:55:35.263Z,64.09
2023-03-29T03:58:28.186Z,64.09
2023-03-29T04:01:21.026Z,64.20
2023-03-29T04:04:07.596Z,64.31
2023-03-29T04:07:02.911Z,64.34
2023-03-29T04:10:08.816Z,64.44
2023-03-29T04:13:10.403Z,64.49
2023-03-29T04:16:03.932Z,64.50
2023-03-29T04:18:39.518Z,64.57
2023-03-29T04:21:33.941Z,64.65
2023-03-29T04:24:10.668Z,64.75
2023-03-29T04:27:03.393Z,64.75
2023-03-29T04:29:36.507Z,64.85
2023-03-29T04:32:29.658Z,64.87
2023-03-29T04:35:16.754Z,64.85
2023-03-29T04:38:05.027Z,64.81
2023-03-29T04:40:58.249Z,64.70
2023-03-29T04:43:50.275Z,64.44
2023-03-29T04:46:43.222Z,64.01
2023-03-29T04:49:44.721Z,63.65
2023-03-29T04:52:27.756Z,63.44
2023-03-29T04:55:22.230Z,63.45
2023-03-29T04:58:05.793Z,63.44
2023-03-29T05:00:43.091Z,63.51
2023-03-29T05:03:38.618Z,63.45
2023-03-29T05:06:30.137Z,63.34
2023-03-29T05:09:23.160Z,63.31
2023-03-29T05:12:16.274Z,63.29
2023-03-29T05:15:09.727Z,63.19
2023-03-29T05:17:55.057Z,63.05
2023-03-29T05:20:28.665Z,62.89
2023-03-29T05:23:21.847Z,62.86
2023-03-29T05:26:22.171Z,62.77
2023-03-29T05:28:57.379Z,62.75
2023-03-29T05:31:40.128Z,62.50
2023-03-29T05:34:16.897Z,62.47
2023-03-29T05:36:53.007Z,62.33
2023-03-29T05:39:26.330Z,62.28
2023-03-29T05:42:00.016Z,62.14
2023-03-29T05:44:47.219Z,61.99
2023-03-29T05:47:40.095Z,61.93
2023-03-29T05:50:23.553Z,61.68
2023-03-29T05:52:56.963Z,61.51
2023-03-29T05:55:29.775Z,61.26
2023-03-29T05:58:18.875Z,61.04
2023-03-29T06:00:55.737Z,60.81
2023-03-29T06:03:51.584Z,60.55
2023-03-29T06:06:31.813Z,59.35
2023-03-29T06:09:07.795Z,58.87
2023-03-29T06:11:56.496Z,59.12
2023-03-29T06:14:41.477Z,59.07
2023-03-29T06:17:47.355Z,58.97
2023-03-29T06:20:26.759Z,59.12
2023-03-29T06:23:02.706Z,59.29
2023-03-29T06:25:38.092Z,59.19
2023-03-29T06:28:12.970Z,58.95
2023-03-29T06:30:53.565Z,58.77
2023-03-29T06:33:47.012Z,58.71
2023-03-29T06:36:39.801Z,59.12
2023-03-29T06:39:25.634Z,58.80
2023-03-29T06:42:20.573Z,58.59
2023-03-29T06:45:36.389Z,58.34
2023-03-29T06:48:12.413Z,57.85
2023-03-29T06:50:48.750Z,57.46
2023-03-29T06:53:26.692Z,56.89
2023-03-29T06:56:14.708Z,56.98
2023-03-29T06:58:48.682Z,56.70
2023-03-29T07:01:55.119Z,56.69
2023-03-29T07:04:49.825Z,56.65
2023-03-29T07:07:53.722Z,55.57
2023-03-29T07:10:49.053Z,55.31
2023-03-29T07:13:54.381Z,55.07
2023-03-29T07:16:47.377Z,54.46
2023-03-29T07:19:40.372Z,54.04
2023-03-29T07:22:35.619Z,53.49
2023-03-29T07:25:31.006Z,52.60
2023-03-29T07:28:14.177Z,53.02
2023-03-29T07:31:11.117Z,52.83
2023-03-29T07:34:06.837Z,52.75
2023-03-29T07:36:59.639Z,52.51
2023-03-29T07:39:52.638Z,51.54
2023-03-29T07:42:56.804Z,52.08
2023-03-29T07:45:49.756Z,51.23
2023-03-29T07:48:42.935Z,50.72
2023-03-29T07:51:36.743Z,51.09
2023-03-29T07:54:25.990Z,50.45
2023-03-29T07:57:21.743Z,50.43
2023-03-29T08:00:18.570Z,50.46
2023-03-29T08:03:13.759Z,50.02
2023-03-29T08:06:09.984Z,49.55
2023-03-29T08:08:58.482Z,49.64
2023-03-29T08:11:53.626Z,48.98
2023-03-29T08:14:46.689Z,47.80
2023-03-29T08:17:41.947Z,47.20
2023-03-29T08:20:28.223Z,46.77
2023-03-29T08:23:21.417Z,46.53
2023-03-29T08:26:33.265Z,46.46
2023-03-29T08:29:29.379Z,46.75
2023-03-29T08:32:11.792Z,46.53
2023-03-29T08:35:06.351Z,47.09
2023-03-29T08:38:04.529Z,46.44
2023-03-29T08:40:51.317Z,45.84
2023-03-29T08:43:49.834Z,45.99
2023-03-29T08:46:50.940Z,45.42
2023-03-29T08:49:58.056Z,45.00
2023-03-29T08:52:56.762Z,44.54
2023-03-29T08:55:54.307Z,44.56
2023-03-29T08:59:02.792Z,44.64
2023-03-29T09:01:58.868Z,43.82
2023-03-29T09:04:52.574Z,44.23
2023-03-29T09:07:48.640Z,43.96
2023-03-29T09:10:47.370Z,43.69
2023-03-29T09:13:41.223Z,42.87
2023-03-29T09:16:39.618Z,43.89
2023-03-29T09:19:36.269Z,43.74
2023-03-29T09:22:29.168Z,43.74
2023-03-29T09:25:27.588Z,43.35
2023-03-29T09:28:14.941Z,42.47
2023-03-29T09:31:13.229Z,42.44
2023-03-29T09:34:14.464Z,42.29
2023-03-29T09:37:36.654Z,42.81
2023-03-29T09:40:35.700Z,42.57
2023-03-29T09:43:34.695Z,41.21
2023-03-29T09:46:31.534Z,41.43
2023-03-29T09:49:30.163Z,41.42
2023-03-29T09:52:10.929Z,39.79
2023-03-29T09:54:53.349Z,38.53
2023-03-29T09:57:46.764Z,38.62
2023-03-29T10:00:40.125Z,37.82
2023-03-29T10:03:35.003Z,37.81
2023-03-29T10:06:20.889Z,38.57
2023-03-29T10:09:18.979Z,37.52
2023-03-29T10:12:14.812Z,37.97
2023-03-29T10:14:57.672Z,38.71
2023-03-29T10:17:39.369Z,37.53
2023-03-29T10:20:18.509Z,37.33
2023-03-29T10:23:02.327Z,37.83
2023-03-29T10:25:55.961Z,37.34
2023-03-29T10:28:49.535Z,37.68
2023-03-29T10:31:43.422Z,38.79
2023-03-29T10:34:29.089Z,38.64
2023-03-29T10:37:23.498Z,38.35
2023-03-29T10:39:59.603Z,38.40
2023-03-29T10:42:32.613Z,38.66
2023-03-29T10:45:26.925Z,38.29
2023-03-29T10:48:00.533Z,37.86
2023-03-29T10:50:38.477Z,37.95
2023-03-29T10:53:28.857Z,37.60
2023-03-29T10:56:14.242Z,38.20
2023-03-29T10:59:10.235Z,37.76
2023-03-29T11:01:51.719Z,38.09
2023-03-29T11:04:49.460Z,38.03
2023-03-29T11:07:33.930Z,37.93
2023-03-29T11:10:31.787Z,38.22
2023-03-29T11:13:34.528Z,38.75
2023-03-29T11:16:19.721Z,38.34
2023-03-29T11:19:23.560Z,38.60
2023-03-29T11:22:01.093Z,37.66
2023-03-29T11:24:50.681Z,36.48
2023-03-29T11:27:36.563Z,36.83
2023-03-29T11:30:19.298Z,35.96
2023-03-29T11:33:03.094Z,35.38
2023-03-29T11:36:06.044Z,36.81
2023-03-29T11:39:00.120Z,35.93
2023-03-29T11:41:49.817Z,36.52
2023-03-29T11:44:35.508Z,36.16
2023-03-29T11:47:34.407Z,35.81
2023-03-29T11:50:20.888Z,35.47
2023-03-29T11:53:00.848Z,36.15
2023-03-29T11:55:41.504Z,34.97
2023-03-29T11:58:32.417Z,34.73
2023-03-29T12:01:12.175Z,34.94
2023-03-29T12:03:50.584Z,34.02
2023-03-29T12:06:31.365Z,34.46
2023-03-29T12:09:11.007Z,35.79
2023-03-29T12:11:54.296Z,34.47
2023-03-29T12:14:58.044Z,33.77
2023-03-29T12:18:00.609Z,32.49
2023-03-29T12:20:40.445Z,32.29
2023-03-29T12:23:35.297Z,33.41
2023-03-29T12:26:47.974Z,33.39
2023-03-29T12:29:55.915Z,33.18
2023-03-29T12:32:47.342Z,33.85
2023-03-29T12:35:54.311Z,33.01
2023-03-29T12:38:49.131Z,32.07
2023-03-29T12:41:41.784Z,32.43
2023-03-29T12:44:59.086Z,32.56
2023-03-29T12:47:53.502Z,32.93
2023-03-29T12:50:36.924Z,32.86
2023-03-29T12:53:24.397Z,32.21
2023-03-29T12:56:17.796Z,31.98
2023-03-29T12:59:18.362Z,32.75
2023-03-29T13:02:07.246Z,33.12
2023-03-29T13:04:54.045Z,33.17
2023-03-29T13:07:47.130Z,32.33
2023-03-29T13:10:39.134Z,32.05
2023-03-29T13:13:16.883Z,32.04
2023-03-29T13:16:12.792Z,31.72
2023-03-29T13:19:11.767Z,32.03
2023-03-29T13:22:01.566Z,31.84
2023-03-29T13:25:06.808Z,32.58
2023-03-29T13:28:07.580Z,32.77
2023-03-29T13:30:54.225Z,33.26
2023-03-29T13:33:57.933Z,33.14
2023-03-29T13:36:54.246Z,33.38
2023-03-29T13:39:39.706Z,33.12
2023-03-29T13:42:39.128Z,33.23
2023-03-29T13:45:30.612Z,33.74
2023-03-29T13:48:22.601Z,33.54
2023-03-29T13:51:29.722Z,33.61
2023-03-29T13:54:32.358Z,33.23
2023-03-29T13:57:11.484Z,33.08
2023-03-29T13:59:55.204Z,33.36
2023-03-29T14:02:36.695Z,33.38
2023-03-29T14:05:18.612Z,33.50
2023-03-29T14:08:10.185Z,32.87
2023-03-29T14:10:45.918Z,32.81
2023-03-29T14:13:25.935Z,32.35
2023-03-29T14:16:12.993Z,32.81
2023-03-29T14:18:51.445Z,32.64
2023-03-29T14:21:27.728Z,32.53
2023-03-29T14:24:02.400Z,32.37
2023-03-29T14:26:37.359Z,32.55
2023-03-29T14:29:25.504Z,32.84
2023-03-29T14:32:21.131Z,32.43
2023-03-29T14:35:14.616Z,31.98
2023-03-29T14:37:51.775Z,31.62
2023-03-29T14:40:27.982Z,31.72
2023-03-29T14:43:05.839Z,31.92
2023-03-29T14:45:39.024Z,32.61
2023-03-29T14:48:15.966Z,32.94
2023-03-29T14:50:49.413Z,33.00
2023-03-29T14:53:29.058Z,32.81
2023-03-29T14:56:15.843Z,33.26
2023-03-29T14:59:29.945Z,33.84
2023-03-29T15:02:35.117Z,34.07
2023-03-29T15:05:19.715Z,33.63
2023-03-29T15:08:08.939Z,33.19
2023-03-29T15:11:03.207Z,33.29
2023-03-29T15:13:48.041Z,32.74
2023-03-29T15:16:35.407Z,32.30
2023-03-29T15:19:28.884Z,32.68
2023-03-29T15:22:15.085Z,32.83
2023-03-29T15:24:52.728Z,33.34
2023-03-29T15:27:46.957Z,33.53
2023-03-29T15:30:41.309Z,33.04
2023-03-29T15:33:33.230Z,33.24
2023-03-29T15:36:16.550Z,33.19
2023-03-29T15:39:11.785Z,33.11
2023-03-29T15:41:50.460Z,33.15
2023-03-29T15:44:44.534Z,33.46
2023-03-29T15:47:30.472Z,33.31
2023-03-29T15:50:23.550Z,33.45
2023-03-29T15:53:18.744Z,33.81
2023-03-29T15:55:58.701Z,33.92
2023-03-29T15:58:44.483Z,33.99
2023-03-29T16:01:34.170Z,33.78
2023-03-29T16:04:20.850Z,33.81
2023-03-29T16:06:57.809Z,33.30
2023-03-29T16:09:52.131Z,33.55
2023-03-29T16:12:35.862Z,33.59
2023-03-29T16:15:25.432Z,34.30
2023-03-29T16:18:01.872Z,34.26
2023-03-29T16:20:55.196Z,34.78
2023-03-29T16:23:48.355Z,35.14
2023-03-29T16:26:43.094Z,35.08
2023-03-29T16:29:36.616Z,35.42
2023-03-29T16:32:20.981Z,35.52
2023-03-29T16:35:20.558Z,36.15
2023-03-29T16:38:03.441Z,36.29
2023-03-29T16:40:58.279Z,36.49
2023-03-29T16:43:38.911Z,37.02
2023-03-29T16:46:32.385Z,37.05
2023-03-29T16:49:25.407Z,37.20
2023-03-29T16:52:18.870Z,37.95
2023-03-29T16:55:13.904Z,38.24
2023-03-29T16:58:08.909Z,38.82
2023-03-29T17:00:43.057Z,40.34
2023-03-29T17:03:30.807Z,40.85
2023-03-29T17:06:23.743Z,42.17
2023-03-29T17:09:20.133Z,42.49
2023-03-29T17:12:13.708Z,43.09
2023-03-29T17:14:56.634Z,44.22
2023-03-29T17:17:49.773Z,45.14
2023-03-29T17:20:45.509Z,46.40
2023-03-29T17:23:29.355Z,46.58
2023-03-29T17:26:22.469Z,47.59
2023-03-29T17:29:07.143Z,48.77
2023-03-29T17:32:00.464Z,48.99
2023-03-29T17:34:53.758Z,49.80
2023-03-29T17:37:47.102Z,50.38
2023-03-29T17:40:40.736Z,50.65
2023-03-29T17:43:33.789Z,51.33
2023-03-29T17:46:27.368Z,50.97
2023-03-29T17:49:20.301Z,51.19
2023-03-29T17:52:13.642Z,51.17
2023-03-29T17:55:11.203Z,51.27
2023-03-29T17:58:05.663Z,51.95
2023-03-29T18:00:59.564Z,52.34
2023-03-29T18:03:52.646Z,53.00
2023-03-29T18:06:46.231Z,54.06
2023-03-29T18:09:31.870Z,55.32
2023-03-29T18:12:27.811Z,55.09
2023-03-29T18:15:21.382Z,55.40
2023-03-29T18:18:08.659Z,54.99
2023-03-29T18:20:51.748Z,54.89
2023-03-29T18:23:48.946Z,55.06
2023-03-29T18:26:25.233Z,55.94
2023-03-29T18:29:09.903Z,56.31
2023-03-29T18:31:46.045Z,57.04
2023-03-29T18:34:32.068Z,57.07
2023-03-29T18:37:24.938Z,57.66
2023-03-29T18:40:20.882Z,57.81
2023-03-29T18:43:13.976Z,57.86
2023-03-29T18:46:07.923Z,57.92
2023-03-29T18:48:53.622Z,58.34
2023-03-29T18:51:47.885Z,56.88
2023-03-29T18:54:33.800Z,57.95
2023-03-29T18:57:26.624Z,57.88
2023-03-29T19:00:19.439Z,58.37
2023-03-29T19:03:13.199Z,59.11
2023-03-29T19:06:07.120Z,59.25
2023-03-29T19:09:02.111Z,58.79
2023-03-29T19:11:55.149Z,58.88
2023-03-29T19:14:48.212Z,58.97
2023-03-29T19:17:41.514Z,58.84
2023-03-29T19:20:36.363Z,58.64
2023-03-29T19:23:29.805Z,58.54
2023-03-29T19:26:23.634Z,58.83
2023-03-29T19:29:18.420Z,58.64
2023-03-29T19:32:06.863Z,58.36
2023-03-29T19:34:52.833Z,58.26
2023-03-29T19:37:46.329Z,58.17
2023-03-29T19:40:39.480Z,58.15
2023-03-29T19:43:33.286Z,58.42
2023-03-29T19:46:28.061Z,58.36
2023-03-29T19:49:21.523Z,58.30
2023-03-29T19:52:14.898Z,58.36
2023-03-29T19:55:10.542Z,58.23
2023-03-29T19:58:05.283Z,58.17
2023-03-29T20:00:59.361Z,58.09
2023-03-29T20:03:54.727Z,58.06
2023-03-29T20:06:48.468Z,58.02
2023-03-29T20:09:24.336Z,58.31
2023-03-29T20:12:17.298Z,58.41
2023-03-29T20:15:11.874Z,58.46
2023-03-29T20:18:05.083Z,58.48
2023-03-29T20:20:58.027Z,58.34
2023-03-29T20:23:44.252Z,58.29
2023-03-29T20:26:37.299Z,58.00
2023-03-29T20:29:30.546Z,57.99
2023-03-29T20:32:23.638Z,57.73
2023-03-29T20:35:16.871Z,57.71
2023-03-29T20:38:10.659Z,57.93
2023-03-29T20:40:55.404Z,57.84
2023-03-29T20:43:48.487Z,57.64
2023-03-29T20:47:01.567Z,57.62
2023-03-29T20:49:45.548Z,57.52
2023-03-29T20:52:31.727Z,57.36
2023-03-29T20:55:25.234Z,57.22
2023-03-29T20:58:18.768Z,57.19
2023-03-29T21:00:54.718Z,57.16
2023-03-29T21:03:36.390Z,57.10
2023-03-29T21:06:30.281Z,56.88
2023-03-29T21:09:25.511Z,56.84
2023-03-29T21:12:11.443Z,57.07
2023-03-29T21:15:04.308Z,57.25
2023-03-29T21:17:57.292Z,57.35
2023-03-29T21:20:52.422Z,57.50
2023-03-29T21:23:48.112Z,57.61
2023-03-29T21:26:43.490Z,57.87
2023-03-29T21:29:36.408Z,57.84
2023-03-29T21:32:28.103Z,57.86
2023-03-29T21:35:21.624Z,58.02
2023-03-29T21:38:14.566Z,57.91
2023-03-29T21:41:00.846Z,57.89
2023-03-29T21:43:46.604Z,57.84
2023-03-29T21:46:39.861Z,57.62
2023-03-29T21:49:34.385Z,57.53
2023-03-29T21:52:28.895Z,57.45
2023-03-29T21:55:21.654Z,57.28
2023-03-29T21:58:14.509Z,57.12
2023-03-29T22:01:10.143Z,57.06
2023-03-29T22:04:05.263Z,57.08
2023-03-29T22:06:58.364Z,56.95
2023-03-29T22:09:53.131Z,56.99
2023-03-29T22:12:46.133Z,56.82
2023-03-29T22:15:35.607Z,56.74
2023-03-29T22:18:20.879Z,56.66
2023-03-29T22:21:04.851Z,56.58
2023-03-29T22:23:59.448Z,56.41
2023-03-29T22:26:45.435Z,56.37
2023-03-29T22:29:38.559Z,56.44
2023-03-29T22:32:33.951Z,56.29
2023-03-29T22:35:28.083Z,56.39
2023-03-29T22:38:21.067Z,56.35
2023-03-29T22:41:15.462Z,56.43
2023-03-29T22:44:08.778Z,56.23
2023-03-29T22:47:01.978Z,56.15
2023-03-29T22:49:55.031Z,56.13
2023-03-29T22:52:41.561Z,56.14
2023-03-29T22:55:35.639Z,55.97
2023-03-29T22:58:19.449Z,55.77
2023-03-29T23:01:13.004Z,56.01
2023-03-29T23:04:06.333Z,56.15
2023-03-29T23:07:00.454Z,56.17
2023-03-29T23:09:45.696Z,56.29
2023-03-29T23:12:39.331Z,56.16
2023-03-29T23:15:32.395Z,56.29
2023-03-29T23:18:26.022Z,56.02
2023-03-29T23:21:18.806Z,56.01
2023-03-29T23:24:02.216Z,55.83
2023-03-29T23:26:55.344Z,55.80
2023-03-29T23:29:48.332Z,55.78
2023-03-29T23:32:41.235Z,55.86
2023-03-29T23:35:34.337Z,55.77
2023-03-29T23:38:28.225Z,55.93
2023-03-29T23:41:14.652Z,56.09
2023-03-29T23:44:09.524Z,56.17
2023-03-29T23:47:02.702Z,56.15
2023-03-29T23:49:38.891Z,56.15
2023-03-29T23:52:24.411Z,55.98
2023-03-29T23:55:17.375Z,55.85
2023-03-29T23:58:11.015Z,55.52
